createdAt,value
2018-03-14T00:02:22.262Z,37.27
2018-03-14T00:04:49.846Z,50.97
2018-03-14T00:07:17.606Z,62.93
2018-03-14T00:09:45.405Z,226.07
2018-03-14T00:12:13.037Z,110.00
2018-03-14T00:14:40.625Z,235.40
2018-03-14T00:17:08.198Z,10.97
2018-03-14T00:19:35.798Z,47.27
2018-03-14T00:22:03.587Z,33.40
2018-03-14T00:24:31.192Z,94.30
2018-03-14T00:26:58.767Z,52.63
2018-03-14T00:29:26.361Z,83.37
2018-03-14T00:31:54.186Z,29.40
2018-03-14T00:34:21.944Z,15.87
2018-03-14T00:36:49.527Z,638.13
2018-03-14T00:39:17.110Z,86.57
2018-03-14T00:41:44.961Z,186.00
2018-03-14T00:44:12.777Z,69.27
2018-03-14T00:46:40.369Z,343.53
2018-03-14T00:49:07.966Z,595.53
2018-03-14T00:51:35.623Z,975.73
2018-03-14T00:54:03.214Z,826.40
2018-03-14T00:56:31.041Z,610.97
2018-03-14T00:58:58.658Z,544.47
2018-03-14T01:01:26.272Z,622.43
2018-03-14T01:03:53.908Z,615.50
2018-03-14T01:06:21.510Z,744.63
2018-03-14T01:08:49.108Z,401.03
2018-03-14T01:11:16.875Z,224.93
2018-03-14T01:13:44.468Z,76.87
2018-03-14T01:16:12.063Z,75.77
2018-03-14T01:18:39.931Z,43.30
2018-03-14T01:21:07.640Z,25.20
2018-03-14T01:23:35.229Z,19.90
2018-03-14T01:26:02.825Z,212.13
2018-03-14T01:28:30.580Z,57.87
2018-03-14T01:30:58.171Z,169.93
2018-03-14T01:33:25.774Z,202.20
2018-03-14T01:35:53.633Z,184.67
2018-03-14T01:38:21.218Z,141.03
2018-03-14T01:40:48.993Z,28.50
2018-03-14T01:43:16.590Z,192.00
2018-03-14T01:45:44.179Z,118.67
2018-03-14T01:48:11.779Z,185.70
2018-03-14T01:50:39.564Z,167.57
2018-03-14T01:53:19.229Z,67.70
2018-03-14T01:55:46.813Z,32.33
2018-03-14T01:58:14.451Z,13.43
2018-03-14T02:00:42.043Z,13.73
2018-03-14T02:03:09.619Z,11.27
2018-03-14T02:05:37.210Z,10.23
2018-03-14T02:08:05.039Z,9.43
2018-03-14T02:10:32.744Z,8.77
2018-03-14T02:13:00.316Z,6.53
2018-03-14T02:15:27.950Z,6.97
2018-03-14T02:17:55.546Z,6.50
2018-03-14T02:20:23.323Z,7.03
2018-03-14T02:22:51.140Z,7.50
2018-03-14T02:25:18.718Z,8.50
2018-03-14T02:27:46.476Z,9.30
2018-03-14T02:30:14.195Z,5.83
2018-03-14T02:32:41.804Z,7.47
2018-03-14T02:35:09.533Z,9.17
2018-03-14T02:37:37.142Z,5.80
2018-03-14T02:40:04.746Z,6.93
2018-03-14T02:42:32.586Z,6.60
2018-03-14T02:45:00.155Z,6.43
2018-03-14T02:47:27.701Z,5.63
2018-03-14T02:49:55.421Z,4.90
2018-03-14T02:52:23.008Z,8.33
2018-03-14T02:54:50.775Z,4.57
2018-03-14T02:57:18.494Z,8.17
2018-03-14T02:59:46.313Z,5.20
2018-03-14T03:02:13.871Z,6.57
2018-03-14T03:04:41.430Z,7.57
2018-03-14T03:07:08.986Z,6.97
2018-03-14T03:09:36.695Z,9.97
2018-03-14T03:12:04.259Z,9.23
2018-03-14T03:14:31.806Z,8.13
2018-03-14T03:16:59.532Z,7.67
2018-03-14T03:19:27.256Z,8.77
2018-03-14T03:21:54.806Z,7.43
2018-03-14T03:24:22.362Z,6.23
2018-03-14T03:26:49.910Z,7.00
2018-03-14T03:29:17.730Z,5.90
2018-03-14T03:31:45.278Z,6.20
2018-03-14T03:34:13.063Z,5.23
2018-03-14T03:36:40.622Z,7.53
2018-03-14T03:39:08.350Z,6.47
2018-03-14T03:41:35.907Z,5.93
2018-03-14T03:44:03.635Z,7.43
2018-03-14T03:46:31.204Z,7.90
2018-03-14T03:48:58.760Z,10.10
2018-03-14T03:51:26.589Z,9.40
2018-03-14T03:53:54.139Z,7.93
2018-03-14T03:56:21.929Z,10.90
2018-03-14T03:58:49.743Z,8.87
2018-03-14T04:01:17.297Z,11.87
2018-03-14T04:03:44.867Z,13.50
2018-03-14T04:06:12.597Z,16.60
2018-03-14T04:08:40.162Z,15.00
2018-03-14T04:11:07.724Z,18.13
2018-03-14T04:13:35.552Z,18.23
2018-03-14T04:16:03.146Z,18.63
2018-03-14T04:18:30.707Z,28.93
2018-03-14T04:20:58.506Z,30.90
2018-03-14T04:23:26.062Z,28.67
2018-03-14T04:25:53.841Z,19.30
2018-03-14T04:28:21.560Z,16.30
2018-03-14T04:30:49.186Z,14.27
2018-03-14T04:33:16.753Z,12.43
2018-03-14T04:35:44.615Z,7.50
2018-03-14T04:38:12.171Z,6.70
2018-03-14T04:40:39.726Z,7.50
2018-03-14T04:43:07.322Z,5.97
2018-03-14T04:45:34.935Z,6.60
2018-03-14T04:48:02.550Z,7.20
2018-03-14T04:50:30.104Z,8.23
2018-03-14T04:52:57.939Z,10.57
2018-03-14T04:55:25.504Z,8.10
2018-03-14T04:57:53.276Z,9.93
2018-03-14T05:00:21.094Z,10.03
2018-03-14T05:02:48.703Z,8.33
2018-03-14T05:05:16.265Z,7.77
2018-03-14T05:07:43.820Z,8.50
2018-03-14T05:10:11.426Z,7.33
2018-03-14T05:12:39.149Z,6.47
2018-03-14T05:15:06.699Z,6.00
2018-03-14T05:17:34.275Z,7.67
2018-03-14T05:20:01.830Z,6.50
2018-03-14T05:22:29.394Z,7.33
2018-03-14T05:24:57.172Z,11.00
2018-03-14T05:27:24.990Z,6.10
2018-03-14T05:29:52.543Z,8.37
2018-03-14T05:32:20.162Z,11.10
2018-03-14T05:34:47.714Z,11.53
2018-03-14T05:37:15.270Z,9.77
2018-03-14T05:39:42.842Z,10.50
2018-03-14T05:42:10.414Z,10.93
2018-03-14T05:44:38.188Z,7.70
2018-03-14T05:47:05.742Z,7.07
2018-03-14T05:49:33.557Z,11.70
2018-03-14T05:52:01.110Z,5.70
2018-03-14T05:54:28.889Z,6.93
2018-03-14T05:56:56.437Z,6.30
2018-03-14T05:59:23.996Z,8.07
2018-03-14T06:01:51.704Z,5.60
2018-03-14T06:04:19.254Z,6.90
2018-03-14T06:06:46.813Z,5.47
2018-03-14T06:09:14.381Z,6.93
2018-03-14T06:11:42.071Z,4.83
2018-03-14T06:14:09.793Z,4.77
2018-03-14T06:16:37.434Z,9.03
2018-03-14T06:19:04.994Z,3.97
2018-03-14T06:21:32.583Z,3.40
2018-03-14T06:24:00.153Z,8.07
2018-03-14T06:26:27.706Z,4.93
2018-03-14T06:28:55.438Z,5.93
2018-03-14T06:31:22.998Z,6.23
2018-03-14T06:33:50.642Z,4.40
2018-03-14T06:36:18.193Z,3.20
2018-03-14T06:38:45.794Z,3.67
2018-03-14T06:41:13.347Z,3.90
2018-03-14T06:43:40.960Z,4.67
2018-03-14T06:46:08.532Z,5.90
2018-03-14T06:48:36.086Z,5.67
2018-03-14T06:51:03.691Z,4.73
2018-03-14T06:53:31.382Z,3.73
2018-03-14T06:55:58.942Z,5.93
2018-03-14T06:58:38.203Z,4.10
2018-03-14T07:01:17.554Z,3.30
2018-03-14T07:06:50.913Z,3.80
2018-03-14T07:09:18.633Z,3.90
2018-03-14T07:11:46.458Z,4.57
2018-03-14T07:14:14.018Z,4.60
2018-03-14T07:16:41.594Z,3.10
2018-03-14T07:19:09.413Z,5.03
2018-03-14T07:21:37.122Z,6.03
2018-03-14T07:24:04.731Z,9.90
2018-03-14T07:26:32.348Z,7.20
2018-03-14T07:28:59.918Z,4.80
2018-03-14T07:31:27.475Z,5.77
2018-03-14T07:33:55.038Z,3.53
2018-03-14T07:36:22.842Z,4.53
2018-03-14T07:38:50.657Z,6.00
2018-03-14T07:41:18.475Z,8.87
2018-03-14T07:43:46.134Z,5.80
2018-03-14T07:46:13.912Z,5.60
2018-03-14T07:48:41.481Z,6.37
2018-03-14T07:51:09.055Z,4.60
2018-03-14T07:53:36.656Z,6.43
2018-03-14T07:56:04.258Z,4.43
2018-03-14T07:58:31.828Z,9.23
2018-03-14T08:00:59.536Z,4.50
2018-03-14T08:03:27.093Z,4.83
2018-03-14T08:05:54.767Z,6.30
2018-03-14T08:08:22.577Z,5.57
2018-03-14T08:10:50.130Z,6.13
2018-03-14T08:13:17.910Z,5.00
2018-03-14T08:15:45.592Z,6.53
2018-03-14T08:18:13.174Z,3.93
2018-03-14T08:20:40.729Z,3.90
2018-03-14T08:23:08.476Z,4.50
2018-03-14T08:25:36.199Z,4.03
2018-03-14T08:28:03.831Z,3.57
2018-03-14T08:30:31.638Z,4.60
2018-03-14T08:32:59.356Z,5.37
2018-03-14T08:35:26.936Z,4.57
2018-03-14T08:37:54.572Z,5.43
2018-03-14T08:40:22.285Z,4.43
2018-03-14T08:42:49.875Z,3.97
2018-03-14T08:45:17.750Z,4.30
2018-03-14T08:47:45.314Z,4.30
2018-03-14T08:50:13.081Z,3.60
2018-03-14T08:52:40.661Z,4.77
2018-03-14T08:55:08.226Z,10.77
2018-03-14T08:57:35.934Z,7.13
2018-03-14T09:00:03.569Z,10.23
2018-03-14T09:02:31.149Z,5.07
2018-03-14T09:04:58.718Z,4.27
2018-03-14T09:07:26.358Z,11.07
2018-03-14T09:09:54.123Z,16.97
2018-03-14T09:12:21.854Z,6.70
2018-03-14T09:14:49.414Z,5.77
2018-03-14T09:17:16.970Z,3.53
2018-03-14T09:19:44.797Z,5.43
2018-03-14T09:22:12.367Z,4.87
2018-03-14T09:24:40.076Z,6.40
2018-03-14T09:27:07.852Z,4.20
2018-03-14T09:29:35.697Z,4.70
2018-03-14T09:32:03.270Z,5.07
2018-03-14T09:34:31.001Z,3.83
2018-03-14T09:36:58.825Z,3.13
2018-03-14T09:39:26.382Z,5.63
2018-03-14T09:41:53.946Z,8.17
2018-03-14T09:44:21.569Z,3.20
2018-03-14T09:46:49.261Z,2.97
2018-03-14T09:49:16.834Z,3.30
2018-03-14T09:51:44.389Z,3.73
2018-03-14T09:54:12.079Z,3.43
2018-03-14T09:56:39.621Z,3.97
2018-03-14T09:59:07.194Z,2.77
2018-03-14T10:01:34.753Z,4.83
2018-03-14T10:04:02.314Z,3.13
2018-03-14T10:06:29.889Z,2.90
2018-03-14T10:08:57.510Z,6.73
2018-03-14T10:11:25.068Z,2.60
2018-03-14T10:13:52.683Z,3.57
2018-03-14T10:16:20.266Z,2.60
2018-03-14T10:18:47.929Z,2.23
2018-03-14T10:21:15.509Z,4.13
2018-03-14T10:23:43.071Z,3.37
2018-03-14T10:26:10.647Z,3.07
2018-03-14T10:28:38.215Z,3.40
2018-03-14T10:31:05.774Z,7.43
2018-03-14T10:33:33.338Z,5.27
2018-03-14T10:36:00.890Z,2.00
2018-03-14T10:38:28.669Z,3.33
2018-03-14T10:40:56.488Z,2.20
2018-03-14T10:43:24.053Z,6.40
2018-03-14T10:45:51.675Z,2.70
2018-03-14T10:48:19.442Z,3.53
2018-03-14T10:50:47.006Z,3.00
2018-03-14T10:53:14.782Z,4.53
2018-03-14T10:55:42.367Z,5.37
2018-03-14T10:58:10.215Z,3.30
2018-03-14T11:00:43.274Z,3.97
2018-03-14T11:03:16.407Z,2.60
2018-03-14T11:05:44.030Z,3.20
2018-03-14T11:08:11.610Z,4.43
2018-03-14T11:10:39.170Z,3.77
2018-03-14T11:13:06.737Z,2.20
2018-03-14T11:15:34.486Z,4.13
2018-03-14T11:18:02.215Z,3.13
2018-03-14T11:20:29.770Z,3.63
2018-03-14T11:22:57.341Z,2.20
2018-03-14T11:25:24.895Z,2.03
2018-03-14T11:27:52.768Z,3.40
2018-03-14T11:30:20.346Z,3.40
2018-03-14T11:32:47.914Z,2.20
2018-03-14T11:35:15.485Z,1.93
2018-03-14T11:37:43.207Z,2.30
2018-03-14T11:40:10.924Z,4.37
2018-03-14T11:42:38.706Z,4.40
2018-03-14T11:45:06.270Z,4.50
2018-03-14T11:47:33.903Z,2.80
2018-03-14T11:50:01.542Z,2.57
2018-03-14T11:52:29.100Z,2.97
2018-03-14T11:54:56.867Z,6.17
2018-03-14T11:57:24.685Z,2.30
2018-03-14T11:59:52.250Z,5.00
2018-03-14T12:02:19.814Z,2.10
2018-03-14T12:04:47.375Z,2.50
2018-03-14T12:07:15.158Z,2.43
2018-03-14T12:09:42.760Z,3.57
2018-03-14T12:12:10.370Z,2.17
2018-03-14T12:14:37.991Z,4.10
2018-03-14T12:17:05.829Z,4.60
2018-03-14T12:19:33.652Z,3.73
2018-03-14T12:22:01.468Z,3.60
2018-03-14T12:24:29.035Z,1.83
2018-03-14T12:26:56.804Z,5.10
2018-03-14T12:29:24.413Z,3.37
2018-03-14T12:31:52.099Z,11.13
2018-03-14T12:34:19.961Z,7.60
2018-03-14T12:36:47.676Z,4.33
2018-03-14T12:39:15.476Z,4.23
2018-03-14T12:41:43.213Z,3.40
2018-03-14T12:44:11.033Z,34.00
2018-03-14T12:46:38.851Z,10.83
2018-03-14T12:49:06.418Z,3.90
2018-03-14T12:51:34.037Z,2.13
2018-03-14T12:54:01.631Z,2.20
2018-03-14T12:56:29.198Z,3.40
2018-03-14T12:58:56.771Z,28.13
2018-03-14T13:01:24.358Z,4.77
2018-03-14T13:03:51.954Z,47.27
2018-03-14T13:06:19.584Z,3.63
2018-03-14T13:08:47.303Z,2.00
2018-03-14T13:11:14.867Z,2.30
2018-03-14T13:13:42.442Z,4.07
2018-03-14T13:16:10.018Z,2.10
2018-03-14T13:18:37.586Z,4.77
2018-03-14T13:21:05.402Z,12.97
2018-03-14T13:23:33.010Z,4.67
2018-03-14T13:26:00.585Z,76.23
2018-03-14T13:28:28.146Z,4.37
2018-03-14T13:30:55.873Z,2.87
2018-03-14T13:33:23.494Z,7.27
2018-03-14T13:35:51.309Z,5.27
2018-03-14T13:38:19.027Z,2.63
2018-03-14T13:40:46.596Z,3.63
2018-03-14T13:43:14.146Z,5.40
2018-03-14T13:45:41.728Z,3.03
2018-03-14T13:48:09.284Z,3.17
2018-03-14T13:50:36.863Z,9.17
2018-03-14T13:53:04.637Z,3.30
2018-03-14T13:55:32.264Z,2.10
2018-03-14T13:57:59.838Z,3.13
2018-03-14T14:00:27.394Z,3.90
2018-03-14T14:02:54.967Z,2.70
2018-03-14T14:05:22.554Z,4.17
2018-03-14T14:07:50.138Z,5.03
2018-03-14T14:10:17.716Z,10.03
2018-03-14T14:12:45.458Z,4.97
2018-03-14T14:15:13.018Z,4.10
2018-03-14T14:17:40.654Z,4.17
2018-03-14T14:20:08.439Z,3.93
2018-03-14T14:22:36.252Z,3.53
2018-03-14T14:25:04.201Z,2.70
2018-03-14T14:27:31.766Z,2.73
2018-03-14T14:29:59.402Z,5.20
2018-03-14T14:32:27.223Z,2.43
2018-03-14T14:34:55.041Z,2.23
2018-03-14T14:37:22.631Z,2.60
2018-03-14T14:39:50.202Z,2.60
2018-03-14T14:42:17.792Z,3.07
2018-03-14T14:44:45.366Z,3.30
2018-03-14T14:47:13.135Z,3.33
2018-03-14T14:49:40.758Z,2.80
2018-03-14T14:52:08.320Z,4.17
2018-03-14T14:54:35.890Z,5.07
2018-03-14T14:57:03.466Z,3.93
2018-03-14T14:59:31.031Z,6.37
2018-03-14T15:01:58.618Z,2.60
2018-03-14T15:04:26.178Z,3.20
2018-03-14T15:06:53.761Z,2.70
2018-03-14T15:09:21.493Z,2.63
2018-03-14T15:11:49.316Z,3.10
2018-03-14T15:14:16.862Z,4.37
2018-03-14T15:16:44.721Z,2.80
2018-03-14T15:19:12.290Z,3.37
2018-03-14T15:21:39.875Z,4.60
2018-03-14T15:24:07.446Z,7.20
2018-03-14T15:26:35.110Z,41.50
2018-03-14T15:29:02.716Z,7.37
2018-03-14T15:31:30.291Z,4.17
2018-03-14T15:33:57.855Z,4.80
2018-03-14T15:36:25.446Z,6.67
2018-03-14T15:38:53.099Z,5.00
2018-03-14T15:41:20.933Z,8.43
2018-03-14T15:43:48.506Z,7.87
2018-03-14T15:46:16.363Z,11.70
2018-03-14T15:48:43.984Z,4.37
2018-03-14T15:51:11.552Z,3.30
2018-03-14T15:53:39.319Z,5.00
2018-03-14T15:56:06.910Z,6.77
2018-03-14T15:58:34.470Z,14.13
2018-03-14T16:01:02.047Z,16.33
2018-03-14T16:03:29.610Z,87.30
2018-03-14T16:05:57.231Z,6.53
2018-03-14T16:08:24.814Z,4.33
2018-03-14T16:10:52.366Z,8.07
2018-03-14T16:13:20.064Z,26.73
2018-03-14T16:15:47.640Z,35.53
2018-03-14T16:18:15.230Z,133.37
2018-03-14T16:20:43.017Z,128.90
2018-03-14T16:23:10.618Z,46.10
2018-03-14T16:25:38.241Z,86.37
2018-03-14T16:28:05.873Z,24.70
2018-03-14T16:30:33.687Z,21.93
2018-03-14T16:33:01.247Z,9.07
2018-03-14T16:35:29.007Z,108.83
2018-03-14T16:37:56.575Z,35.80
2018-03-14T16:40:24.172Z,14.67
2018-03-14T16:42:51.867Z,37.83
2018-03-14T16:45:19.694Z,37.67
2018-03-14T16:47:47.304Z,37.37
2018-03-14T16:50:14.889Z,48.77
2018-03-14T16:52:42.651Z,29.43
2018-03-14T16:55:10.283Z,26.37
2018-03-14T16:57:37.847Z,54.70
2018-03-14T17:00:05.510Z,30.13
2018-03-14T17:02:33.107Z,26.80
2018-03-14T17:05:00.677Z,17.63
2018-03-14T17:07:28.259Z,61.43
2018-03-14T17:09:55.863Z,53.93
2018-03-14T17:12:23.592Z,39.67
2018-03-14T17:14:51.182Z,121.83
2018-03-14T17:17:18.880Z,199.80
2018-03-14T17:19:46.532Z,262.70
2018-03-14T17:22:14.161Z,199.70
2018-03-14T17:24:42.017Z,151.90
2018-03-14T17:27:09.624Z,99.13
2018-03-14T17:29:37.313Z,119.57
2018-03-14T17:32:04.961Z,217.70
2018-03-14T17:34:32.540Z,76.00
2018-03-14T17:37:00.115Z,88.80
2018-03-14T17:39:27.787Z,84.67
2018-03-14T17:41:55.361Z,230.53
2018-03-14T17:44:23.163Z,232.33
2018-03-14T17:46:50.949Z,161.93
2018-03-14T17:49:18.766Z,220.70
2018-03-14T17:51:46.400Z,361.60
2018-03-14T17:54:14.200Z,666.13
2018-03-14T17:56:42.011Z,620.93
2018-03-14T17:59:09.661Z,1109.53
2018-03-14T18:01:37.447Z,664.17
2018-03-14T18:04:05.253Z,570.93
2018-03-14T18:06:32.890Z,727.60
2018-03-14T18:09:00.710Z,361.43
2018-03-14T18:11:28.433Z,163.93
2018-03-14T18:13:56.062Z,99.13
2018-03-14T18:16:23.858Z,63.17
2018-03-14T18:18:51.455Z,69.87
2018-03-14T18:21:19.060Z,63.33
2018-03-14T18:23:46.919Z,67.13
2018-03-14T18:26:14.739Z,129.83
2018-03-14T18:28:42.559Z,141.23
2018-03-14T18:31:10.368Z,638.77
2018-03-14T18:33:37.986Z,313.80
2018-03-14T18:36:05.712Z,118.27
2018-03-14T18:38:33.633Z,64.87
2018-03-14T18:41:01.457Z,45.53
2018-03-14T18:43:29.269Z,42.30
2018-03-14T18:45:57.002Z,41.60
2018-03-14T18:48:24.806Z,40.13
2018-03-14T18:50:52.625Z,45.00
2018-03-14T18:53:21.140Z,55.37
2018-03-14T18:55:48.727Z,47.50
2018-03-14T18:58:16.376Z,45.37
2018-03-14T19:00:44.199Z,42.60
2018-03-14T19:03:12.017Z,150.33
2018-03-14T19:05:39.828Z,256.70
2018-03-14T19:08:07.443Z,273.00
2018-03-14T19:10:35.140Z,160.43
2018-03-14T19:13:02.891Z,142.53
2018-03-14T19:15:30.709Z,339.30
2018-03-14T19:17:58.419Z,143.93
2018-03-14T19:20:26.006Z,224.90
2018-03-14T19:22:53.594Z,231.23
2018-03-14T19:25:21.192Z,306.70
2018-03-14T19:27:48.892Z,130.53
2018-03-14T19:30:16.608Z,152.93
2018-03-14T19:32:44.220Z,71.40
2018-03-14T19:35:11.810Z,129.80
2018-03-14T19:37:39.382Z,94.50
2018-03-14T19:40:07.192Z,114.07
2018-03-14T19:42:34.803Z,247.63
2018-03-14T19:45:02.724Z,249.23
2018-03-14T19:47:30.303Z,209.37
2018-03-14T19:49:57.942Z,107.17
2018-03-14T19:52:25.568Z,70.77
2018-03-14T19:54:53.400Z,48.17
2018-03-14T19:57:21.008Z,39.60
2018-03-14T19:59:48.613Z,32.27
2018-03-14T20:02:16.338Z,27.60
2018-03-14T20:04:44.071Z,124.60
2018-03-14T20:07:11.659Z,145.50
2018-03-14T20:09:39.396Z,127.17
2018-03-14T20:12:06.982Z,187.43
2018-03-14T20:14:34.592Z,300.17
2018-03-14T20:17:02.474Z,122.30
2018-03-14T20:19:30.165Z,72.13
2018-03-14T20:21:57.789Z,29.63
2018-03-14T20:24:25.647Z,27.23
2018-03-14T20:26:53.228Z,34.83
2018-03-14T20:29:20.943Z,60.70
2018-03-14T20:31:48.503Z,52.93
2018-03-14T20:34:16.289Z,56.80
2018-03-14T20:36:43.900Z,90.50
2018-03-14T20:39:11.647Z,107.20
2018-03-14T20:41:39.443Z,94.67
2018-03-14T20:44:07.145Z,85.73
2018-03-14T20:46:34.731Z,73.73
2018-03-14T20:49:02.391Z,69.57
2018-03-14T20:51:29.966Z,57.67
2018-03-14T20:53:57.736Z,59.07
2018-03-14T20:56:25.320Z,45.03
2018-03-14T20:58:52.936Z,54.23
2018-03-14T21:01:20.502Z,41.63
2018-03-14T21:03:48.309Z,34.97
2018-03-14T21:06:15.866Z,37.57
2018-03-14T21:08:43.642Z,36.23
2018-03-14T21:11:11.459Z,37.17
2018-03-14T21:13:39.077Z,36.83
2018-03-14T21:16:06.690Z,51.17
2018-03-14T21:18:34.246Z,51.13
2018-03-14T21:21:01.921Z,66.17
2018-03-14T21:23:29.498Z,33.57
2018-03-14T21:25:57.062Z,46.20
2018-03-14T21:28:24.885Z,43.37
2018-03-14T21:30:52.704Z,44.47
2018-03-14T21:33:20.307Z,58.97
2018-03-14T21:35:47.948Z,42.27
2018-03-14T21:38:15.659Z,40.07
2018-03-14T21:40:43.226Z,40.03
2018-03-14T21:43:10.875Z,41.73
2018-03-14T21:45:38.442Z,50.40
2018-03-14T21:48:06.204Z,61.90
2018-03-14T21:50:33.761Z,71.73
2018-03-14T21:53:01.401Z,53.57
2018-03-14T21:55:38.887Z,39.67
2018-03-14T21:58:06.639Z,35.97
2018-03-14T22:00:34.244Z,35.50
2018-03-14T22:03:02.077Z,35.13
2018-03-14T22:05:29.646Z,36.57
2018-03-14T22:07:57.214Z,41.73
2018-03-14T22:10:25.029Z,43.40
2018-03-14T22:12:52.856Z,37.67
2018-03-14T22:15:20.422Z,37.70
2018-03-14T22:17:48.184Z,44.23
2018-03-14T22:20:15.804Z,34.03
2018-03-14T22:22:43.378Z,35.10
2018-03-14T22:25:11.238Z,46.33
2018-03-14T22:27:38.797Z,50.70
2018-03-14T22:30:06.533Z,55.33
2018-03-14T22:32:34.248Z,37.13
2018-03-14T22:35:01.848Z,42.57
2018-03-14T22:37:29.628Z,38.40
2018-03-14T22:39:57.445Z,50.17
2018-03-14T22:42:25.010Z,56.47
2018-03-14T22:44:52.695Z,53.20
2018-03-14T22:47:20.291Z,46.97
2018-03-14T22:49:47.854Z,55.90
2018-03-14T22:52:15.465Z,88.53
2018-03-14T22:54:43.098Z,107.07
2018-03-14T22:57:10.711Z,75.97
2018-03-14T22:59:38.280Z,251.60
2018-03-14T23:02:05.874Z,101.27
2018-03-14T23:04:33.460Z,75.80
2018-03-14T23:07:01.022Z,84.43
2018-03-14T23:09:28.612Z,59.60
2018-03-14T23:11:56.235Z,59.87
2018-03-14T23:14:23.995Z,65.40
2018-03-14T23:16:51.559Z,53.37
2018-03-14T23:19:19.332Z,62.80
2018-03-14T23:21:46.904Z,44.63
2018-03-14T23:24:14.475Z,44.37
2018-03-14T23:26:42.129Z,95.13
2018-03-14T23:29:09.910Z,72.80
2018-03-14T23:31:37.480Z,74.30
2018-03-14T23:34:05.208Z,51.13
2018-03-14T23:36:32.784Z,41.63
2018-03-14T23:39:00.578Z,40.83
2018-03-14T23:41:28.166Z,37.57
2018-03-14T23:43:55.803Z,27.50
2018-03-14T23:46:23.409Z,27.70
2018-03-14T23:48:50.970Z,33.03
2018-03-14T23:51:18.531Z,34.50
2018-03-14T23:53:46.100Z,37.00
2018-03-14T23:56:13.659Z,33.13
2018-03-14T23:58:41.418Z,30.97
